Terminal Aerodrome Forecast
Issued by NWS

Home | Current Version | Previous Version | Text Only | Print | Product List | Glossary On
Versions: 1 2 3 4 5 6 7 8 9 10 11 12 13 14 15 16 17 18 19
000
FTUS43 KMPX 291724
TAFRNH
TAF
KRNH 291724Z 2918/3018 24008KT 6SM -SHRA BR VCTS SCT012 OVC025CB
      TEMPO 2918/2921 2SM -TSRA BR BKN012CB
     FM292100 34010KT 4SM -SHRA BR BKN012 OVC020
     FM300300 35011G19KT P6SM OVC020
     FM300900 01010KT P6SM SCT025 OVC050
     FM301400 02012G18KT P6SM SCT035 SCT250=

USA.gov is the U.S. government's official web portal to all federal, state and local government web resources and services.